createdAt,value
2023-01-27T00:04:52.288Z,173.00
2023-01-27T00:10:01.290Z,184.90
2023-01-27T00:15:13.170Z,195.00
2023-01-27T00:20:39.005Z,199.60
2023-01-27T00:25:51.037Z,189.50
2023-01-27T00:30:59.531Z,174.20
2023-01-27T00:36:13.774Z,186.50
2023-01-27T00:41:29.223Z,171.30
2023-01-27T00:52:00.116Z,153.70
2023-01-27T00:57:18.518Z,165.70
2023-01-27T01:02:33.827Z,170.50
2023-01-27T01:07:53.849Z,175.10
2023-01-27T01:13:10.314Z,184.60
2023-01-27T01:18:26.999Z,170.00
2023-01-27T01:23:49.755Z,173.60
2023-01-27T01:28:57.902Z,178.50
2023-01-27T01:34:17.695Z,193.30
2023-01-27T01:39:31.249Z,195.80
2023-01-27T01:44:52.997Z,211.80
2023-01-27T01:50:05.874Z,192.90
2023-01-27T01:55:17.083Z,187.40
2023-01-27T02:00:33.325Z,183.20
2023-01-27T02:05:50.202Z,190.00
2023-01-27T02:11:12.149Z,217.40
2023-01-27T02:16:19.982Z,191.60
2023-01-27T02:21:27.256Z,197.70
2023-01-27T02:26:38.355Z,198.80
2023-01-27T02:31:45.545Z,204.10
2023-01-27T02:36:57.396Z,215.90
2023-01-27T02:42:08.355Z,223.70
2023-01-27T02:47:15.426Z,239.50
2023-01-27T02:52:23.224Z,262.30
2023-01-27T02:57:30.400Z,235.20
2023-01-27T03:03:00.034Z,246.60
2023-01-27T03:08:07.014Z,250.10
2023-01-27T03:13:14.042Z,245.10
2023-01-27T03:18:22.606Z,251.10
2023-01-27T03:23:29.778Z,224.30
2023-01-27T03:28:37.100Z,235.90
2023-01-27T03:33:57.388Z,246.10
2023-01-27T03:39:28.869Z,252.70
2023-01-27T03:44:53.817Z,254.50
2023-01-27T03:50:00.794Z,250.20
2023-01-27T03:55:09.591Z,267.50
2023-01-27T04:00:18.150Z,290.90
2023-01-27T04:05:42.841Z,317.10
2023-01-27T04:11:09.853Z,313.20
2023-01-27T04:16:17.146Z,262.00
2023-01-27T04:21:24.545Z,323.20
2023-01-27T04:26:34.546Z,311.00
2023-01-27T04:31:42.689Z,317.30
2023-01-27T04:36:49.815Z,262.40
2023-01-27T04:41:56.997Z,300.80
2023-01-27T04:47:04.248Z,261.20
2023-01-27T04:52:11.106Z,296.70
2023-01-27T04:57:17.828Z,279.70
2023-01-27T05:02:26.576Z,291.40
2023-01-27T05:07:33.639Z,264.90
2023-01-27T05:12:40.603Z,172.00
2023-01-27T05:17:48.316Z,96.30
2023-01-27T05:23:15.885Z,81.60
2023-01-27T05:28:22.842Z,71.30
2023-01-27T05:33:29.840Z,77.50
2023-01-27T05:38:37.157Z,75.60
2023-01-27T05:43:45.829Z,78.60
2023-01-27T05:48:54.912Z,83.30
2023-01-27T05:54:02.078Z,99.30
2023-01-27T05:59:12.934Z,98.70
2023-01-27T06:04:19.886Z,112.60
2023-01-27T06:09:26.787Z,117.20
2023-01-27T06:14:33.857Z,104.40
2023-01-27T06:19:40.741Z,109.70
2023-01-27T06:24:47.594Z,112.60
2023-01-27T06:29:54.534Z,111.10
2023-01-27T06:35:01.551Z,118.00
2023-01-27T06:40:10.326Z,127.20
2023-01-27T06:45:17.273Z,104.90
2023-01-27T06:50:24.897Z,103.90
2023-01-27T06:55:32.123Z,109.40
2023-01-27T07:00:39.997Z,99.10
2023-01-27T07:05:47.010Z,99.10
2023-01-27T07:10:53.897Z,90.60
2023-01-27T07:16:01.661Z,84.20
2023-01-27T07:21:09.293Z,96.00
2023-01-27T07:26:24.963Z,84.80
2023-01-27T07:31:32.364Z,88.00
2023-01-27T07:36:39.564Z,87.00
2023-01-27T07:41:49.019Z,79.60
2023-01-27T07:46:56.473Z,79.60
2023-01-27T07:52:03.421Z,96.60
2023-01-27T07:57:34.162Z,110.40
2023-01-27T08:02:54.510Z,129.20
2023-01-27T08:08:13.725Z,116.40
2023-01-27T08:19:28.230Z,102.50
2023-01-27T08:24:58.764Z,117.90
2023-01-27T08:30:21.515Z,103.30
2023-01-27T08:35:51.856Z,114.10
2023-01-27T08:41:12.365Z,101.00
2023-01-27T08:46:49.314Z,100.80
2023-01-27T08:52:01.099Z,113.40
2023-01-27T08:57:24.809Z,94.00
2023-01-27T09:02:39.518Z,99.50
2023-01-27T09:07:57.209Z,87.70
2023-01-27T09:13:18.644Z,80.80
2023-01-27T09:18:34.627Z,75.50
2023-01-27T09:23:45.390Z,91.80
2023-01-27T09:28:59.455Z,87.20
2023-01-27T09:34:11.210Z,98.90
2023-01-27T09:39:20.241Z,97.00
2023-01-27T09:44:43.323Z,108.00
2023-01-27T09:50:05.966Z,105.10
2023-01-27T09:55:23.398Z,90.10
2023-01-27T10:00:39.758Z,98.70
2023-01-27T10:06:10.162Z,89.60
2023-01-27T10:11:28.466Z,91.90
2023-01-27T10:17:04.406Z,91.20
2023-01-27T10:22:20.990Z,103.90
2023-01-27T10:27:31.807Z,88.10
2023-01-27T10:32:46.543Z,83.10
2023-01-27T10:38:07.042Z,77.50
2023-01-27T10:43:37.507Z,140.10
2023-01-27T10:49:05.360Z,154.70
2023-01-27T10:54:35.990Z,155.80
2023-01-27T11:00:51.324Z,165.80
2023-01-27T11:05:43.864Z,154.60
2023-01-27T11:11:12.958Z,172.40
2023-01-27T11:21:43.138Z,194.10
2023-01-27T11:27:07.136Z,213.80
2023-01-27T11:32:34.060Z,217.20
2023-01-27T11:37:45.611Z,240.00
2023-01-27T11:42:58.354Z,227.70
2023-01-27T11:48:18.605Z,219.80
2023-01-27T11:53:40.545Z,218.00
2023-01-27T11:59:05.197Z,216.00
2023-01-27T12:04:29.511Z,218.90
2023-01-27T12:09:50.335Z,224.20
2023-01-27T12:15:06.698Z,196.90
2023-01-27T12:20:42.977Z,190.00
2023-01-27T12:26:10.952Z,193.40
2023-01-27T12:31:43.164Z,180.20
2023-01-27T12:37:14.044Z,193.80
2023-01-27T12:42:43.452Z,199.50
2023-01-27T12:48:18.303Z,196.50
2023-01-27T12:53:37.052Z,189.70
2023-01-27T12:58:58.621Z,205.70
2023-01-27T13:04:17.949Z,189.10
2023-01-27T13:09:42.223Z,202.20
2023-01-27T13:14:55.917Z,224.70
2023-01-27T13:20:19.045Z,224.30
2023-01-27T13:25:38.115Z,219.30
2023-01-27T13:30:52.731Z,219.00
2023-01-27T13:36:17.182Z,228.20
2023-01-27T13:41:30.871Z,226.60
2023-01-27T13:46:47.524Z,221.20
2023-01-27T13:52:10.129Z,226.70
2023-01-27T13:57:53.700Z,209.60
2023-01-27T14:03:31.546Z,203.20
2023-01-27T14:08:56.537Z,208.70
2023-01-27T14:14:29.989Z,163.00
2023-01-27T14:19:53.951Z,165.60
2023-01-27T14:25:09.415Z,157.40
2023-01-27T14:30:24.338Z,135.10
2023-01-27T14:35:43.994Z,130.20
2023-01-27T14:41:09.220Z,112.90
2023-01-27T14:46:40.691Z,121.60
2023-01-27T14:51:55.819Z,92.70
2023-01-27T14:57:39.101Z,110.00
2023-01-27T15:02:59.316Z,106.20
2023-01-27T15:08:37.302Z,111.70
2023-01-27T15:14:21.204Z,121.00
2023-01-27T15:19:44.841Z,129.80
2023-01-27T15:25:28.072Z,138.40
2023-01-27T15:31:08.172Z,146.30
2023-01-27T15:36:32.267Z,147.70
2023-01-27T15:41:52.002Z,150.00
2023-01-27T15:47:10.276Z,152.50
2023-01-27T15:52:30.065Z,144.30
2023-01-27T15:57:40.233Z,161.90
2023-01-27T16:02:53.565Z,147.40
2023-01-27T16:08:03.792Z,144.50
2023-01-27T16:13:25.614Z,131.70
2023-01-27T16:18:54.163Z,123.10
2023-01-27T16:24:06.697Z,102.20
2023-01-27T16:29:35.514Z,112.70
2023-01-27T16:34:44.347Z,132.80
2023-01-27T16:39:56.404Z,124.30
2023-01-27T16:45:16.980Z,126.50
2023-01-27T16:50:37.765Z,125.20
2023-01-27T16:56:00.186Z,123.30
2023-01-27T17:01:24.724Z,118.40
2023-01-27T17:06:32.831Z,107.00
2023-01-27T17:11:42.955Z,108.40
2023-01-27T17:16:51.440Z,98.30
2023-01-27T17:22:01.081Z,101.30
2023-01-27T17:27:15.847Z,100.10
2023-01-27T17:32:31.593Z,98.40
2023-01-27T17:37:44.797Z,114.10
2023-01-27T17:43:08.557Z,127.60
2023-01-27T17:48:38.710Z,103.10
2023-01-27T17:53:46.657Z,115.90
2023-01-27T17:59:01.176Z,114.00
2023-01-27T18:04:14.541Z,120.50
2023-01-27T18:09:28.589Z,129.40
2023-01-27T18:14:37.083Z,166.20
2023-01-27T18:19:53.373Z,156.50
2023-01-27T18:25:21.638Z,144.10
2023-01-27T18:30:30.107Z,128.60
2023-01-27T18:35:41.176Z,125.40
2023-01-27T18:40:53.638Z,120.20
2023-01-27T18:46:02.656Z,114.10
2023-01-27T18:51:13.539Z,104.90
2023-01-27T18:56:20.706Z,120.90
2023-01-27T19:01:28.033Z,116.20
2023-01-27T19:06:35.176Z,125.60
2023-01-27T19:11:42.401Z,113.30
2023-01-27T19:16:49.536Z,133.20
2023-01-27T19:21:56.549Z,114.90
2023-01-27T19:27:04.359Z,116.60
2023-01-27T19:32:15.404Z,111.60
2023-01-27T19:37:23.276Z,106.30
2023-01-27T19:42:30.515Z,106.40
2023-01-27T19:47:37.760Z,106.30
2023-01-27T19:52:45.055Z,95.00
2023-01-27T19:57:53.273Z,107.60
2023-01-27T20:03:00.937Z,104.30
2023-01-27T20:08:13.975Z,101.20
2023-01-27T20:13:22.095Z,101.40
2023-01-27T20:18:28.928Z,100.70
2023-01-27T20:23:36.024Z,101.30
2023-01-27T20:28:48.350Z,109.10
2023-01-27T20:33:55.483Z,100.50
2023-01-27T20:39:02.888Z,97.60
2023-01-27T20:44:13.536Z,88.90
2023-01-27T20:49:20.523Z,95.00
2023-01-27T20:54:28.556Z,98.80
2023-01-27T20:59:35.857Z,102.80
2023-01-27T21:04:43.006Z,98.30
2023-01-27T21:09:50.818Z,119.00
2023-01-27T21:14:58.011Z,105.10
2023-01-27T21:20:05.336Z,111.10
2023-01-27T21:25:13.613Z,111.10
2023-01-27T21:30:20.897Z,107.60
2023-01-27T21:35:27.892Z,116.10
2023-01-27T21:40:34.968Z,113.30
2023-01-27T21:45:41.989Z,103.50
2023-01-27T21:50:54.193Z,97.80
2023-01-27T22:01:13.044Z,87.20
2023-01-27T22:06:20.163Z,89.60
2023-01-27T22:11:27.100Z,101.00
2023-01-27T22:16:34.545Z,105.00
2023-01-27T22:21:41.700Z,105.20
2023-01-27T22:26:48.730Z,109.30
2023-01-27T22:31:56.208Z,103.50
2023-01-27T22:37:04.066Z,107.70
2023-01-27T22:42:11.314Z,107.20
2023-01-27T22:47:20.617Z,106.10
2023-01-27T22:52:27.688Z,108.10
2023-01-27T22:57:35.160Z,93.90
2023-01-27T23:02:42.158Z,102.10
2023-01-27T23:07:50.529Z,97.70
2023-01-27T23:12:57.432Z,85.50
2023-01-27T23:18:11.504Z,88.50
2023-01-27T23:23:19.799Z,89.40
2023-01-27T23:28:26.786Z,102.10
2023-01-27T23:33:37.452Z,94.10
2023-01-27T23:38:44.346Z,84.50
2023-01-27T23:43:56.355Z,87.00
2023-01-27T23:49:03.377Z,100.10
2023-01-27T23:54:10.406Z,84.40
2023-01-27T23:59:17.694Z,87.60
